createdAt,value
2018-12-18T00:36:49.745Z,5.80
2018-12-18T01:16:03.738Z,4.53
2018-12-18T01:18:31.171Z,4.50
2018-12-18T01:20:58.563Z,5.57
2018-12-18T01:23:26.057Z,6.47
2018-12-18T01:25:53.449Z,6.25
2018-12-18T01:28:20.874Z,5.80
2018-12-18T01:30:48.300Z,5.37
2018-12-18T01:33:15.892Z,5.37
2018-12-18T01:35:43.289Z,7.05
2018-12-18T01:38:10.714Z,5.20
2018-12-18T01:40:38.176Z,5.20
2018-12-18T01:45:32.602Z,4.62
2018-12-18T01:48:00.016Z,6.22
2018-12-18T01:50:27.420Z,5.05
2018-12-18T01:52:55.154Z,4.80
2018-12-18T01:55:22.543Z,4.95
2018-12-18T01:57:49.971Z,5.35
2018-12-18T02:00:17.366Z,5.00
2018-12-18T02:02:45.000Z,4.80
2018-12-18T02:05:12.932Z,5.10
2018-12-18T02:07:40.335Z,4.03
2018-12-18T02:10:07.759Z,4.03
2018-12-18T02:12:35.167Z,4.65
2018-12-18T02:15:03.423Z,4.93
2018-12-18T02:17:30.878Z,5.65
2018-12-18T02:19:58.301Z,4.93
2018-12-18T02:22:25.683Z,4.57
2018-12-18T02:24:53.071Z,4.07
2018-12-18T02:27:20.476Z,4.68
2018-12-18T02:29:47.876Z,4.25
2018-12-18T02:32:15.278Z,3.83
2018-12-18T02:34:42.682Z,4.80
2018-12-18T02:37:10.116Z,4.75
2018-12-18T02:39:37.524Z,5.30
2018-12-18T02:42:04.928Z,5.82
2018-12-18T02:44:32.326Z,5.70
2018-12-18T02:46:59.741Z,3.42
2018-12-18T02:49:27.165Z,6.22
2018-12-18T02:51:54.569Z,4.03
2018-12-18T02:54:21.991Z,3.78
2018-12-18T02:56:49.387Z,4.78
2018-12-18T02:59:16.817Z,5.15
2018-12-18T03:01:44.263Z,6.03
2018-12-18T03:04:12.018Z,7.25
2018-12-18T03:06:39.491Z,5.43
2018-12-18T03:09:06.911Z,5.15
2018-12-18T03:11:34.311Z,7.43
2018-12-18T03:14:01.737Z,5.57
2018-12-18T03:16:29.128Z,6.68
2018-12-18T03:18:56.545Z,7.28
2018-12-18T03:21:24.327Z,4.85
2018-12-18T03:23:51.725Z,5.10
2018-12-18T03:26:19.508Z,6.78
2018-12-18T03:28:47.116Z,5.43
2018-12-18T03:31:14.531Z,5.43
2018-12-18T03:33:42.614Z,5.25
2018-12-18T03:36:10.022Z,6.40
2018-12-18T03:38:37.661Z,8.02
2018-12-18T03:41:05.525Z,6.25
2018-12-18T03:43:32.954Z,6.37
2018-12-18T03:46:00.355Z,5.47
2018-12-18T03:48:27.809Z,4.90
2018-12-18T03:50:56.575Z,6.25
2018-12-18T03:53:24.002Z,6.57
2018-12-18T03:55:51.635Z,4.90
2018-12-18T03:58:19.097Z,5.55
2018-12-18T04:00:46.529Z,6.50
2018-12-18T04:03:14.792Z,6.57
2018-12-18T04:05:42.212Z,5.40
2018-12-18T04:08:09.881Z,6.78
2018-12-18T04:10:37.341Z,4.93
2018-12-18T04:13:04.751Z,5.72
2018-12-18T04:15:32.355Z,6.97
2018-12-18T04:17:59.771Z,4.47
2018-12-18T04:20:27.317Z,4.25
2018-12-18T04:22:54.718Z,6.05
2018-12-18T04:25:22.164Z,5.00
2018-12-18T04:27:49.641Z,5.62
2018-12-18T04:30:17.061Z,4.22
2018-12-18T04:32:44.556Z,4.47
2018-12-18T04:35:12.067Z,3.90
2018-12-18T04:37:39.546Z,4.45
2018-12-18T04:40:07.100Z,5.45
2018-12-18T04:42:34.561Z,5.57
2018-12-18T04:45:03.061Z,4.20
2018-12-18T04:47:30.459Z,5.15
2018-12-18T04:49:57.877Z,5.22
2018-12-18T04:52:25.281Z,4.90
2018-12-18T04:54:52.753Z,5.10
2018-12-18T04:57:20.165Z,5.57
2018-12-18T04:59:47.602Z,4.85
2018-12-18T05:02:15.092Z,4.45
2018-12-18T05:04:50.007Z,4.10
2018-12-18T05:07:10.245Z,6.53
2018-12-18T05:09:38.256Z,6.57
2018-12-18T05:12:06.571Z,6.53
2018-12-18T05:14:35.072Z,4.70
2018-12-18T05:17:02.518Z,6.18
2018-12-18T05:19:29.985Z,4.87
2018-12-18T05:21:58.093Z,5.10
2018-12-18T05:24:25.518Z,5.50
2018-12-18T05:26:52.969Z,4.70
2018-12-18T05:29:20.409Z,4.50
2018-12-18T05:31:47.847Z,4.47
2018-12-18T05:34:15.339Z,6.03
2018-12-18T05:36:42.819Z,4.80
2018-12-18T05:39:10.670Z,5.30
2018-12-18T05:41:38.120Z,4.50
2018-12-18T05:44:05.527Z,5.80
2018-12-18T05:46:32.937Z,4.53
2018-12-18T05:49:00.991Z,4.80
2018-12-18T05:51:28.397Z,6.18
2018-12-18T05:53:55.808Z,7.00
2018-12-18T05:56:23.282Z,6.43
2018-12-18T05:58:50.721Z,4.97
2018-12-18T06:01:18.183Z,5.07
2018-12-18T06:03:45.586Z,6.70
2018-12-18T06:06:13.585Z,6.90
2018-12-18T06:08:40.978Z,5.53
2018-12-18T06:11:08.449Z,5.20
2018-12-18T06:13:35.871Z,4.80
2018-12-18T06:16:04.460Z,5.53
2018-12-18T06:18:31.895Z,5.37
2018-12-18T06:20:59.297Z,5.72
2018-12-18T06:23:26.741Z,5.28
2018-12-18T06:25:54.129Z,5.00
2018-12-18T06:28:22.051Z,5.55
2018-12-18T06:30:49.453Z,6.70
2018-12-18T06:33:16.892Z,5.12
2018-12-18T06:35:44.407Z,5.80
2018-12-18T06:38:11.828Z,7.45
2018-12-18T06:40:39.230Z,6.10
2018-12-18T06:43:06.699Z,6.37
2018-12-18T06:45:34.140Z,6.85
2018-12-18T06:48:01.583Z,6.60
2018-12-18T06:50:28.998Z,6.95
2018-12-18T06:52:56.426Z,5.47
2018-12-18T06:55:23.853Z,6.75
2018-12-18T06:57:51.333Z,6.95
2018-12-18T07:00:18.767Z,5.68
2018-12-18T07:02:46.343Z,8.82
2018-12-18T07:05:16.822Z,5.25
2018-12-18T07:07:41.396Z,7.65
2018-12-18T07:10:08.797Z,6.80
2018-12-18T07:12:36.974Z,7.05
2018-12-18T07:15:04.383Z,7.07
2018-12-18T07:17:32.631Z,8.13
2018-12-18T07:20:00.058Z,7.97
2018-12-18T07:22:27.454Z,7.07
2018-12-18T07:24:54.897Z,6.75
2018-12-18T07:27:22.307Z,6.65
2018-12-18T07:29:49.712Z,7.28
2018-12-18T07:32:17.135Z,6.60
2018-12-18T07:34:44.529Z,8.85
2018-12-18T07:37:11.957Z,6.30
2018-12-18T07:39:39.450Z,6.68
2018-12-18T07:42:07.085Z,6.87
2018-12-18T07:44:35.641Z,8.48
2018-12-18T07:47:03.191Z,6.87
2018-12-18T07:49:30.607Z,8.15
2018-12-18T07:51:58.487Z,9.02
2018-12-18T07:54:26.072Z,9.38
2018-12-18T07:56:53.478Z,10.50
2018-12-18T07:59:20.893Z,11.40
2018-12-18T08:01:48.359Z,8.80
2018-12-18T08:04:15.761Z,9.90
2018-12-18T08:06:44.422Z,9.75
2018-12-18T08:09:11.899Z,11.63
2018-12-18T08:11:39.326Z,10.70
2018-12-18T08:14:06.742Z,10.32
2018-12-18T08:16:34.817Z,9.50
2018-12-18T08:19:02.260Z,9.93
2018-12-18T08:21:30.291Z,11.50
2018-12-18T08:23:57.972Z,12.23
2018-12-18T08:26:25.518Z,12.63
2018-12-18T08:28:52.925Z,7.95
2018-12-18T08:31:20.384Z,9.48
2018-12-18T08:33:48.607Z,11.12
2018-12-18T08:36:16.059Z,9.23
2018-12-18T08:38:43.461Z,8.20
2018-12-18T08:41:10.969Z,8.73
2018-12-18T08:43:38.380Z,7.30
2018-12-18T08:46:10.140Z,8.10
2018-12-18T08:48:33.207Z,8.73
2018-12-18T08:51:00.736Z,8.48
2018-12-18T08:53:28.152Z,9.23
2018-12-18T08:55:55.552Z,7.03
2018-12-18T08:58:22.954Z,11.02
2018-12-18T09:00:50.458Z,11.43
2018-12-18T09:03:17.913Z,11.70
2018-12-18T09:05:45.419Z,10.40
2018-12-18T09:08:12.870Z,9.57
2018-12-18T09:10:40.345Z,10.13
2018-12-18T09:30:22.849Z,10.30
2018-12-18T09:32:50.280Z,7.60
2018-12-18T09:35:17.702Z,8.73
2018-12-18T09:37:45.097Z,8.63
2018-12-18T09:40:12.549Z,6.85
2018-12-18T09:42:45.519Z,7.10
2018-12-18T09:45:12.936Z,9.20
2018-12-18T10:44:07.198Z,5.40
2018-12-18T10:46:34.680Z,3.90
2018-12-18T10:49:02.104Z,3.10
2018-12-18T10:51:29.530Z,2.97
2018-12-18T10:53:57.033Z,3.35
2018-12-18T10:56:24.472Z,4.12
2018-12-18T10:58:51.919Z,3.20
2018-12-18T11:01:25.283Z,3.00
2018-12-18T11:03:52.703Z,3.97
2018-12-18T11:06:20.144Z,2.45
2018-12-18T11:08:47.631Z,4.93
2018-12-18T11:11:15.022Z,2.53
2018-12-18T11:13:42.543Z,2.37
2018-12-18T11:16:09.936Z,3.65
2018-12-18T11:18:37.381Z,2.08
2018-12-18T11:21:04.777Z,2.53
2018-12-18T11:23:33.396Z,2.90
2018-12-18T11:26:00.795Z,2.70
2018-12-18T11:28:28.375Z,3.35
2018-12-18T11:30:56.153Z,2.30
2018-12-18T11:33:23.558Z,1.75
2018-12-18T11:35:51.311Z,2.45
2018-12-18T11:38:18.784Z,3.58
2018-12-18T11:40:46.184Z,3.37
2018-12-18T11:43:13.591Z,3.35
2018-12-18T11:45:41.005Z,2.90
2018-12-18T11:48:08.565Z,2.20
2018-12-18T11:50:35.959Z,3.25
2018-12-18T11:53:03.397Z,2.72
2018-12-18T11:55:30.894Z,2.40
2018-12-18T11:57:58.882Z,2.30
2018-12-18T12:00:26.369Z,2.70
2018-12-18T12:02:53.866Z,3.17
2018-12-18T12:05:21.314Z,2.30
2018-12-18T12:07:48.747Z,5.07
2018-12-18T12:10:16.661Z,2.83
2018-12-18T12:12:44.073Z,2.33
2018-12-18T12:15:11.508Z,4.85
2018-12-18T12:17:38.915Z,2.80
2018-12-18T12:20:06.355Z,2.22
2018-12-18T12:22:33.765Z,3.10
2018-12-18T12:25:01.223Z,3.42
2018-12-18T12:27:33.478Z,5.65
2018-12-18T12:30:01.247Z,2.90
2018-12-18T12:32:28.674Z,2.50
2018-12-18T12:34:56.607Z,3.45
2018-12-18T12:37:24.069Z,4.15
2018-12-18T12:39:54.357Z,4.72
2018-12-18T12:42:21.765Z,3.95
2018-12-18T12:44:49.194Z,3.12
2018-12-18T12:47:16.723Z,2.75
2018-12-18T12:49:44.193Z,3.33
2018-12-18T12:52:11.592Z,3.08
2018-12-18T12:54:39.826Z,4.05
2018-12-18T12:57:08.847Z,3.85
2018-12-18T12:59:36.423Z,4.53
2018-12-18T13:02:03.826Z,3.65
2018-12-18T13:04:31.316Z,3.55
2018-12-18T13:06:58.825Z,2.60
2018-12-18T13:09:26.853Z,3.40
2018-12-18T13:11:54.255Z,4.10
2018-12-18T13:14:21.770Z,3.87
2018-12-18T13:16:49.166Z,3.95
2018-12-18T13:19:16.566Z,3.40
2018-12-18T13:21:43.987Z,4.10
2018-12-18T13:24:11.560Z,3.55
2018-12-18T13:26:38.995Z,4.28
2018-12-18T13:29:06.493Z,3.65
2018-12-18T13:31:34.054Z,4.37
2018-12-18T13:34:02.073Z,4.30
2018-12-18T13:36:29.039Z,4.50
2018-12-18T13:38:56.496Z,3.55
2018-12-18T13:41:23.926Z,3.25
2018-12-18T13:43:51.350Z,3.70
2018-12-18T13:46:18.806Z,2.78
2018-12-18T13:48:46.585Z,3.10
2018-12-18T13:51:14.010Z,3.12
2018-12-18T13:53:41.457Z,3.95
2018-12-18T13:56:08.897Z,3.45
2018-12-18T13:58:36.376Z,3.70
2018-12-18T14:01:03.828Z,4.97
2018-12-18T14:03:31.282Z,3.90
2018-12-18T14:05:58.676Z,4.05
2018-12-18T14:08:26.130Z,3.30
2018-12-18T14:10:53.736Z,3.58
2018-12-18T14:13:21.120Z,3.87
2018-12-18T14:15:48.543Z,2.62
2018-12-18T14:18:15.955Z,4.50
2018-12-18T14:20:43.367Z,2.95
2018-12-18T14:23:10.786Z,2.78
2018-12-18T14:25:38.176Z,3.05
2018-12-18T14:28:05.674Z,3.00
2018-12-18T14:30:33.219Z,4.30
2018-12-18T14:33:00.626Z,5.80
2018-12-18T14:35:28.042Z,3.55
2018-12-18T14:37:55.468Z,3.83
2018-12-18T14:40:22.856Z,3.08
2018-12-18T14:42:50.269Z,3.70
2018-12-18T14:45:17.667Z,3.87
2018-12-18T14:47:45.090Z,3.05
2018-12-18T14:50:12.490Z,3.55
2018-12-18T14:52:39.922Z,3.72
2018-12-18T14:55:07.459Z,3.05
2018-12-18T14:57:34.890Z,5.07
2018-12-18T15:00:02.300Z,4.65
2018-12-18T15:02:30.128Z,3.15
2018-12-18T15:04:57.535Z,4.03
2018-12-18T15:07:25.249Z,4.07
2018-12-18T15:09:53.000Z,3.10
2018-12-18T15:12:21.129Z,3.40
2018-12-18T15:14:48.546Z,3.53
2018-12-18T15:17:15.955Z,3.22
2018-12-18T15:19:43.380Z,4.28
2018-12-18T15:22:10.812Z,2.92
2018-12-18T15:24:38.241Z,3.33
2018-12-18T15:27:05.681Z,3.67
2018-12-18T15:29:33.768Z,3.30
2018-12-18T15:32:01.181Z,3.22
2018-12-18T15:34:28.654Z,2.80
2018-12-18T15:36:56.047Z,3.15
2018-12-18T15:39:23.483Z,3.55
2018-12-18T15:41:50.871Z,3.33
2018-12-18T15:44:18.316Z,3.25
2018-12-18T15:46:45.721Z,3.95
2018-12-18T15:49:13.294Z,3.95
2018-12-18T15:51:40.707Z,4.57
2018-12-18T15:54:08.109Z,4.05
2018-12-18T15:56:35.500Z,4.22
2018-12-18T15:59:02.971Z,3.00
2018-12-18T16:01:30.387Z,3.03
2018-12-18T16:03:58.680Z,4.20
2018-12-18T16:06:26.161Z,2.97
2018-12-18T16:08:53.556Z,3.87
2018-12-18T16:11:20.945Z,3.70
2018-12-18T16:13:48.361Z,3.12
2018-12-18T16:16:15.758Z,3.55
2018-12-18T16:18:43.241Z,3.75
2018-12-18T16:21:10.698Z,3.78
2018-12-18T16:23:38.128Z,2.70
2018-12-18T16:26:05.572Z,3.40
2018-12-18T16:28:33.009Z,3.85
2018-12-18T16:31:00.402Z,3.58
2018-12-18T16:33:27.872Z,3.80
2018-12-18T16:35:55.334Z,4.40
2018-12-18T16:38:22.871Z,4.00
2018-12-18T16:40:50.307Z,5.00
2018-12-18T16:43:17.730Z,4.20
2018-12-18T16:45:45.128Z,3.37
2018-12-18T16:48:12.559Z,3.85
2018-12-18T16:50:39.961Z,4.78
2018-12-18T16:53:07.520Z,4.30
2018-12-18T16:55:34.934Z,3.97
2018-12-18T16:58:02.327Z,4.15
2018-12-18T17:00:29.901Z,3.80
2018-12-18T17:02:57.321Z,3.90
2018-12-18T17:17:45.321Z,5.70
2018-12-18T17:20:12.754Z,6.03
2018-12-18T17:22:40.799Z,3.30
2018-12-18T17:25:08.201Z,5.32
2018-12-18T17:27:35.642Z,4.03
2018-12-18T17:30:03.412Z,12.50
2018-12-18T17:39:51.807Z,5.40
2018-12-18T17:42:19.411Z,5.95
2018-12-18T17:59:28.843Z,6.10
2018-12-18T18:01:56.339Z,7.37
2018-12-18T18:04:23.819Z,4.35
2018-12-18T18:06:51.264Z,4.82
2018-12-18T18:09:18.719Z,4.70
2018-12-18T18:11:46.143Z,5.37
2018-12-18T18:14:13.783Z,5.20
2018-12-18T18:16:41.217Z,6.97
2018-12-18T18:19:08.607Z,4.93
2018-12-18T18:21:36.041Z,7.00
2018-12-18T18:24:03.707Z,5.55
2018-12-18T18:26:32.239Z,6.30
2018-12-18T18:28:59.331Z,4.75
2018-12-18T18:31:26.719Z,5.87
2018-12-18T18:33:54.147Z,5.82
2018-12-18T18:36:21.598Z,5.87
2018-12-18T18:38:49.790Z,6.45
2018-12-18T18:41:17.203Z,6.12
2018-12-18T18:43:44.641Z,6.78
2018-12-18T18:46:12.718Z,8.65
2018-12-18T18:48:40.179Z,8.00
2018-12-18T18:51:07.796Z,8.07
2018-12-18T18:53:35.746Z,9.68
2018-12-18T18:56:03.152Z,7.40
2018-12-18T18:58:30.579Z,7.43
2018-12-18T19:00:57.981Z,6.95
2018-12-18T19:03:25.402Z,6.72
2018-12-18T19:13:13.859Z,7.07
2018-12-18T19:15:41.272Z,8.38
2018-12-18T19:18:08.733Z,5.65
2018-12-18T19:20:36.299Z,7.55
2018-12-18T19:23:03.720Z,7.30
2018-12-18T19:25:31.189Z,6.78
2018-12-18T19:52:28.720Z,8.20
2018-12-18T20:02:17.048Z,7.20
2018-12-18T20:04:44.454Z,7.37
2018-12-18T20:07:12.711Z,7.65
2018-12-18T20:09:40.308Z,8.40
2018-12-18T20:12:08.990Z,6.95
2018-12-18T20:14:35.954Z,9.43
2018-12-18T20:17:03.376Z,6.25
2018-12-18T20:19:30.871Z,8.98
2018-12-18T20:21:59.076Z,7.20
2018-12-18T20:24:27.759Z,7.68
2018-12-18T20:26:55.332Z,7.68
2018-12-18T20:29:22.806Z,7.95
2018-12-18T20:31:50.206Z,7.25
2018-12-18T20:36:51.458Z,9.40
2018-12-18T20:39:19.745Z,8.35
2018-12-18T20:58:56.947Z,9.52
2018-12-18T21:01:24.676Z,9.88
2018-12-18T21:03:52.161Z,9.38
2018-12-18T21:06:19.578Z,6.60
2018-12-18T21:08:46.983Z,7.35
2018-12-18T21:11:14.433Z,7.10
2018-12-18T21:13:41.898Z,6.15
2018-12-18T21:16:09.359Z,7.90
2018-12-18T21:18:36.785Z,8.32
2018-12-18T21:21:04.173Z,7.30
2018-12-18T21:23:31.597Z,7.95
2018-12-18T21:25:59.003Z,8.27
2018-12-18T21:28:26.419Z,7.47
2018-12-18T21:35:47.781Z,6.15
2018-12-18T21:40:42.942Z,6.90
2018-12-18T21:43:10.402Z,7.07
2018-12-18T21:45:37.852Z,8.23
2018-12-18T21:48:05.291Z,7.43
2018-12-18T21:50:32.430Z,7.43
2018-12-18T21:52:59.885Z,6.70
2018-12-18T21:55:27.292Z,9.80
2018-12-18T21:57:54.695Z,8.80
2018-12-18T22:00:22.106Z,6.10
2018-12-18T22:02:49.632Z,8.32
2018-12-18T22:05:17.038Z,8.40
2018-12-18T22:07:44.508Z,6.10
2018-12-18T22:15:06.031Z,7.50
2018-12-18T22:17:33.445Z,6.62
2018-12-18T22:20:00.872Z,8.60
2018-12-18T22:22:28.312Z,7.22
2018-12-18T22:24:55.758Z,8.95
2018-12-18T22:27:23.177Z,8.15
2018-12-18T22:29:50.730Z,8.07
2018-12-18T22:32:19.248Z,7.90
2018-12-18T22:42:07.704Z,6.15
2018-12-18T22:54:23.078Z,8.20
2018-12-18T22:56:50.479Z,5.53
2018-12-18T22:59:17.897Z,6.25
2018-12-18T23:01:45.376Z,6.60
2018-12-18T23:04:12.815Z,7.15
2018-12-18T23:06:40.208Z,4.87
2018-12-18T23:09:07.606Z,8.43
2018-12-18T23:11:35.774Z,7.75
2018-12-18T23:14:03.395Z,6.97
2018-12-18T23:16:30.822Z,6.75
2018-12-18T23:18:58.285Z,8.30
2018-12-18T23:21:25.803Z,7.65
2018-12-18T23:23:53.211Z,7.82
2018-12-18T23:26:20.649Z,6.75
2018-12-18T23:28:48.076Z,6.87
2018-12-18T23:31:15.486Z,8.45
2018-12-18T23:33:42.908Z,6.20
2018-12-18T23:36:10.372Z,8.05
2018-12-18T23:38:37.746Z,8.60
2018-12-18T23:41:05.203Z,7.95
2018-12-18T23:43:32.610Z,5.47
2018-12-18T23:46:00.105Z,6.25
2018-12-18T23:48:27.543Z,7.53
2018-12-18T23:50:55.035Z,6.80
2018-12-18T23:53:22.462Z,7.50
2018-12-18T23:55:49.851Z,8.40
2018-12-18T23:58:18.110Z,7.20
